createdAt,value
2018-09-02T00:01:46.471Z,18.50
2018-09-02T00:04:16.486Z,18.48
2018-09-02T00:06:46.516Z,18.49
2018-09-02T00:09:18.222Z,18.46
2018-09-02T00:11:48.745Z,18.44
2018-09-02T00:14:19.250Z,18.39
2018-09-02T00:16:48.654Z,18.36
2018-09-02T00:19:17.550Z,18.35
2018-09-02T00:21:47.108Z,18.37
2018-09-02T00:24:16.467Z,18.34
2018-09-02T00:26:46.046Z,18.30
2018-09-02T00:29:15.435Z,18.33
2018-09-02T00:31:45.089Z,18.29
2018-09-02T00:34:14.236Z,18.28
2018-09-02T00:36:44.405Z,18.24
2018-09-02T00:39:14.548Z,18.27
2018-09-02T00:41:43.644Z,18.29
2018-09-02T00:44:13.078Z,18.27
2018-09-02T00:46:43.381Z,18.23
2018-09-02T00:49:12.407Z,18.23
2018-09-02T00:51:43.997Z,18.20
2018-09-02T00:54:13.251Z,18.18
2018-09-02T00:56:43.486Z,18.18
2018-09-02T00:59:12.824Z,18.17
2018-09-02T01:01:42.304Z,18.21
2018-09-02T01:04:11.294Z,18.18
2018-09-02T01:06:40.925Z,18.23
2018-09-02T01:09:10.411Z,18.21
2018-09-02T01:11:40.739Z,18.14
2018-09-02T01:14:10.125Z,18.08
2018-09-02T01:16:39.190Z,18.05
2018-09-02T01:19:09.312Z,18.02
2018-09-02T01:21:39.000Z,18.00
2018-09-02T01:24:08.123Z,17.96
2018-09-02T01:26:37.478Z,17.98
2018-09-02T01:29:06.954Z,17.92
2018-09-02T01:31:36.813Z,17.88
2018-09-02T01:34:06.805Z,17.88
2018-09-02T01:36:36.693Z,17.82
2018-09-02T01:39:06.637Z,17.80
2018-09-02T01:41:35.662Z,17.79
2018-09-02T01:44:06.386Z,17.77
2018-09-02T01:46:35.840Z,17.74
2018-09-02T01:49:05.501Z,17.74
2018-09-02T01:51:34.921Z,17.68
2018-09-02T01:54:04.162Z,17.69
2018-09-02T01:56:34.329Z,17.65
2018-09-02T01:59:03.104Z,17.63
2018-09-02T02:01:32.243Z,17.62
2018-09-02T02:04:02.360Z,17.62
2018-09-02T02:06:31.450Z,17.58
2018-09-02T02:09:00.545Z,17.57
2018-09-02T02:11:29.903Z,17.56
2018-09-02T02:13:59.916Z,17.54
2018-09-02T02:16:30.444Z,17.52
2018-09-02T02:18:59.717Z,17.54
2018-09-02T02:21:29.001Z,17.51
2018-09-02T02:23:58.005Z,17.51
2018-09-02T02:26:26.970Z,17.48
2018-09-02T02:28:56.452Z,17.49
2018-09-02T02:31:26.410Z,17.49
2018-09-02T02:33:56.541Z,17.48
2018-09-02T02:36:26.048Z,17.46
2018-09-02T02:38:55.140Z,17.45
2018-09-02T02:41:24.933Z,17.44
2018-09-02T02:43:54.590Z,17.51
2018-09-02T02:46:24.032Z,17.48
2018-09-02T02:48:53.070Z,17.48
2018-09-02T02:51:22.843Z,17.48
2018-09-02T02:53:51.753Z,17.48
2018-09-02T02:56:21.967Z,17.48
2018-09-02T02:58:51.042Z,17.61
2018-09-02T03:01:20.917Z,17.57
2018-09-02T03:03:50.619Z,17.53
2018-09-02T03:06:21.506Z,17.51
2018-09-02T03:08:50.803Z,17.49
2018-09-02T03:11:20.655Z,17.50
2018-09-02T03:13:50.338Z,17.48
2018-09-02T03:16:19.755Z,17.46
2018-09-02T03:18:50.226Z,17.46
2018-09-02T03:21:20.196Z,17.43
2018-09-02T03:23:49.425Z,17.42
2018-09-02T03:26:18.724Z,17.39
2018-09-02T03:28:47.737Z,17.36
2018-09-02T03:31:18.691Z,17.34
2018-09-02T03:33:48.275Z,17.31
2018-09-02T03:36:18.555Z,17.28
2018-09-02T03:38:47.985Z,17.26
2018-09-02T03:41:17.388Z,17.26
2018-09-02T03:43:46.719Z,17.24
2018-09-02T03:46:16.736Z,17.28
2018-09-02T03:48:47.318Z,17.26
2018-09-02T03:51:16.812Z,17.24
2018-09-02T03:53:47.562Z,17.21
2018-09-02T03:56:17.027Z,17.19
2018-09-02T03:58:47.097Z,17.19
2018-09-02T04:01:16.666Z,17.21
2018-09-02T04:03:48.113Z,17.20
2018-09-02T04:06:17.731Z,17.18
2018-09-02T04:08:49.198Z,17.20
2018-09-02T04:11:20.489Z,17.20
2018-09-02T04:13:49.610Z,17.18
2018-09-02T04:16:19.018Z,17.14
2018-09-02T04:18:49.229Z,17.17
2018-09-02T04:21:18.894Z,17.12
2018-09-02T04:23:48.426Z,17.12
2018-09-02T04:26:17.869Z,17.13
2018-09-02T04:28:46.814Z,17.13
2018-09-02T04:31:16.363Z,17.10
2018-09-02T04:33:45.548Z,17.07
2018-09-02T04:36:14.836Z,17.15
2018-09-02T04:38:43.814Z,17.07
2018-09-02T04:41:13.440Z,17.02
2018-09-02T04:43:42.421Z,17.03
2018-09-02T04:46:12.150Z,16.99
2018-09-02T04:48:41.812Z,17.01
2018-09-02T04:51:11.736Z,17.01
2018-09-02T04:53:40.970Z,17.02
2018-09-02T04:56:10.782Z,17.08
2018-09-02T04:58:39.814Z,17.05
2018-09-02T05:01:10.302Z,16.99
2018-09-02T05:03:40.317Z,16.96
2018-09-02T05:06:09.559Z,17.01
2018-09-02T05:08:39.166Z,16.99
2018-09-02T05:11:08.861Z,17.00
2018-09-02T05:13:38.572Z,17.00
2018-09-02T05:16:07.567Z,17.00
2018-09-02T05:18:36.938Z,17.07
2018-09-02T05:21:05.903Z,17.13
2018-09-02T05:23:35.274Z,17.07
2018-09-02T05:26:04.775Z,17.06
2018-09-02T05:28:33.694Z,17.07
2018-09-02T05:31:04.314Z,17.16
2018-09-02T05:33:33.338Z,17.17
2018-09-02T05:36:03.041Z,17.17
2018-09-02T05:38:32.436Z,17.15
2018-09-02T05:41:01.443Z,17.18
2018-09-02T05:43:30.744Z,17.15
2018-09-02T05:46:00.494Z,17.16
2018-09-02T05:48:29.997Z,17.24
2018-09-02T05:51:00.315Z,17.21
2018-09-02T05:53:29.984Z,17.22
2018-09-02T05:56:00.102Z,17.22
2018-09-02T05:58:29.794Z,17.25
2018-09-02T06:00:58.645Z,17.29
2018-09-02T06:03:27.823Z,17.26
2018-09-02T06:05:58.595Z,17.25
2018-09-02T06:08:28.198Z,17.22
2018-09-02T06:10:58.949Z,17.22
2018-09-02T06:13:28.021Z,17.24
2018-09-02T06:15:58.148Z,17.27
2018-09-02T06:18:28.203Z,17.27
2018-09-02T06:20:58.863Z,17.37
2018-09-02T06:23:28.229Z,17.33
2018-09-02T06:26:04.731Z,17.37
2018-09-02T06:28:34.033Z,17.31
2018-09-02T06:31:04.278Z,17.31
2018-09-02T06:33:35.172Z,17.25
2018-09-02T06:36:04.522Z,17.31
2018-09-02T06:38:34.505Z,17.34
2018-09-02T06:41:03.467Z,17.41
2018-09-02T06:43:32.585Z,17.43
2018-09-02T06:46:03.154Z,17.42
2018-09-02T06:48:32.651Z,17.41
2018-09-02T06:51:02.602Z,17.41
2018-09-02T06:53:31.910Z,17.54
2018-09-02T06:56:02.449Z,17.62
2018-09-02T06:58:31.782Z,17.63
2018-09-02T07:01:00.987Z,17.69
2018-09-02T07:03:31.488Z,17.87
2018-09-02T07:06:01.322Z,17.82
2018-09-02T07:08:31.468Z,17.73
2018-09-02T07:11:01.313Z,17.81
2018-09-02T07:13:31.126Z,17.81
2018-09-02T07:16:01.135Z,17.92
2018-09-02T07:18:32.110Z,17.80
2018-09-02T07:21:03.382Z,17.81
2018-09-02T07:23:33.475Z,17.93
2018-09-02T07:26:02.596Z,17.88
2018-09-02T07:28:34.940Z,17.86
2018-09-02T07:31:06.849Z,17.81
2018-09-02T07:33:36.399Z,17.82
2018-09-02T07:36:05.799Z,17.98
2018-09-02T07:38:35.157Z,18.05
2018-09-02T07:41:04.334Z,18.06
2018-09-02T07:43:35.351Z,18.06
2018-09-02T07:46:05.673Z,18.13
2018-09-02T07:48:35.324Z,18.12
2018-09-02T07:51:04.538Z,18.19
2018-09-02T07:53:34.729Z,18.27
2018-09-02T07:56:04.511Z,18.31
2018-09-02T07:58:33.598Z,18.50
2018-09-02T08:01:03.646Z,18.63
2018-09-02T08:03:32.692Z,18.54
2018-09-02T08:06:02.487Z,18.55
2018-09-02T08:08:32.558Z,18.70
2018-09-02T08:11:02.497Z,18.70
2018-09-02T08:13:34.395Z,18.84
2018-09-02T08:16:04.469Z,18.81
2018-09-02T08:18:33.642Z,18.74
2018-09-02T08:21:03.644Z,18.80
2018-09-02T08:23:33.483Z,18.70
2018-09-02T08:26:04.520Z,18.56
2018-09-02T08:28:33.831Z,18.56
2018-09-02T08:31:03.246Z,18.59
2018-09-02T08:33:32.822Z,18.61
2018-09-02T08:36:02.669Z,18.53
2018-09-02T08:38:33.196Z,18.52
2018-09-02T08:41:02.904Z,18.48
2018-09-02T08:43:31.943Z,18.56
2018-09-02T08:46:01.008Z,18.53
2018-09-02T08:48:29.989Z,18.60
2018-09-02T08:51:00.181Z,18.42
2018-09-02T08:53:29.591Z,18.32
2018-09-02T08:55:58.945Z,18.25
2018-09-02T08:58:28.523Z,18.34
2018-09-02T09:00:59.034Z,18.33
2018-09-02T09:03:28.742Z,18.28
2018-09-02T09:05:57.871Z,18.30
2018-09-02T09:08:28.588Z,18.29
2018-09-02T09:11:00.019Z,18.35
2018-09-02T09:13:30.222Z,18.32
2018-09-02T09:16:00.119Z,18.43
2018-09-02T09:18:29.699Z,18.42
2018-09-02T09:20:59.701Z,18.42
2018-09-02T09:23:29.327Z,18.53
2018-09-02T09:25:58.796Z,18.56
2018-09-02T09:28:29.126Z,18.55
2018-09-02T09:30:59.398Z,18.54
2018-09-02T09:33:29.135Z,18.49
2018-09-02T09:35:58.749Z,18.75
2018-09-02T09:38:29.961Z,18.63
2018-09-02T09:41:00.022Z,18.68
2018-09-02T09:43:29.790Z,18.59
2018-09-02T09:45:59.393Z,18.53
2018-09-02T09:48:28.624Z,18.50
2018-09-02T09:50:58.404Z,18.50
2018-09-02T09:53:27.944Z,18.61
2018-09-02T09:55:57.303Z,18.55
2018-09-02T09:58:27.098Z,18.58
2018-09-02T10:00:56.347Z,18.63
2018-09-02T10:03:27.183Z,18.65
2018-09-02T10:05:56.946Z,18.73
2018-09-02T10:08:26.905Z,18.59
2018-09-02T10:10:57.273Z,18.46
2018-09-02T10:13:26.850Z,18.46
2018-09-02T10:15:56.333Z,18.38
2018-09-02T10:18:25.758Z,18.26
2018-09-02T10:20:55.884Z,18.26
2018-09-02T10:23:25.531Z,18.16
2018-09-02T10:25:55.182Z,18.20
2018-09-02T10:28:24.454Z,18.12
2018-09-02T10:30:54.123Z,18.11
2018-09-02T10:33:24.544Z,18.13
2018-09-02T10:35:54.971Z,18.16
2018-09-02T10:38:24.207Z,18.28
2018-09-02T10:40:54.403Z,18.25
2018-09-02T10:43:24.751Z,18.33
2018-09-02T10:45:54.213Z,18.34
2018-09-02T10:48:23.534Z,18.39
2018-09-02T10:50:53.169Z,18.46
2018-09-02T10:53:22.280Z,18.48
2018-09-02T10:55:52.433Z,18.48
2018-09-02T10:58:22.096Z,18.52
2018-09-02T11:00:51.490Z,18.64
2018-09-02T11:03:21.304Z,18.65
2018-09-02T11:05:51.046Z,18.74
2018-09-02T11:08:20.544Z,18.79
2018-09-02T11:10:49.793Z,18.83
2018-09-02T11:13:19.516Z,18.85
2018-09-02T11:15:48.763Z,18.91
2018-09-02T11:18:18.692Z,18.97
2018-09-02T11:20:48.498Z,19.04
2018-09-02T11:23:17.544Z,19.05
2018-09-02T11:25:47.901Z,19.24
2018-09-02T11:28:17.697Z,19.26
2018-09-02T11:30:47.183Z,19.34
2018-09-02T11:33:16.837Z,19.31
2018-09-02T11:35:45.878Z,19.35
2018-09-02T11:38:14.907Z,19.35
2018-09-02T11:40:44.268Z,19.41
2018-09-02T11:43:14.633Z,19.49
2018-09-02T11:45:45.231Z,19.58
2018-09-02T11:48:14.934Z,19.59
2018-09-02T11:50:44.514Z,19.71
2018-09-02T11:53:13.467Z,19.97
2018-09-02T11:55:42.687Z,20.23
2018-09-02T11:58:12.573Z,20.41
2018-09-02T12:00:42.638Z,20.47
2018-09-02T12:03:13.401Z,20.53
2018-09-02T12:05:42.776Z,20.46
2018-09-02T12:08:11.718Z,20.50
2018-09-02T12:10:41.428Z,20.64
2018-09-02T12:13:10.435Z,20.51
2018-09-02T12:15:39.654Z,20.39
2018-09-02T12:18:09.597Z,20.28
2018-09-02T12:20:39.542Z,20.21
2018-09-02T12:23:09.564Z,20.10
2018-09-02T12:25:38.989Z,20.01
2018-09-02T12:28:08.269Z,19.96
2018-09-02T12:30:37.755Z,19.94
2018-09-02T12:33:07.127Z,19.85
2018-09-02T12:35:36.844Z,19.84
2018-09-02T12:38:06.296Z,19.93
2018-09-02T12:40:35.394Z,20.14
2018-09-02T12:43:04.534Z,20.65
2018-09-02T12:45:35.131Z,21.03
2018-09-02T12:48:04.555Z,21.45
2018-09-02T12:50:33.439Z,22.16
2018-09-02T12:53:02.974Z,23.15
2018-09-02T12:55:32.918Z,23.77
2018-09-02T12:58:01.892Z,23.61
2018-09-02T13:00:34.002Z,23.32
2018-09-02T13:03:03.555Z,23.01
2018-09-02T13:05:33.053Z,22.57
2018-09-02T13:08:02.924Z,22.19
2018-09-02T13:10:32.916Z,21.88
2018-09-02T13:13:03.093Z,21.66
2018-09-02T13:15:32.188Z,21.58
2018-09-02T13:18:01.511Z,21.55
2018-09-02T13:20:31.399Z,21.54
2018-09-02T13:23:01.166Z,21.46
2018-09-02T13:25:31.470Z,21.71
2018-09-02T13:28:00.960Z,21.54
2018-09-02T13:30:30.531Z,21.48
2018-09-02T13:32:59.687Z,21.36
2018-09-02T13:35:29.844Z,21.28
2018-09-02T13:37:59.674Z,21.17
2018-09-02T13:40:29.705Z,21.12
2018-09-02T13:42:59.370Z,21.09
2018-09-02T13:45:29.819Z,21.03
2018-09-02T13:47:58.960Z,21.07
2018-09-02T13:50:28.656Z,21.15
2018-09-02T13:52:57.862Z,21.12
2018-09-02T13:55:27.576Z,21.12
2018-09-02T13:57:56.980Z,21.18
2018-09-02T14:00:26.388Z,21.18
2018-09-02T14:02:55.301Z,21.13
2018-09-02T14:05:25.144Z,21.22
2018-09-02T14:07:55.332Z,21.41
2018-09-02T14:10:25.208Z,21.44
2018-09-02T14:12:55.491Z,21.48
2018-09-02T14:15:25.245Z,21.48
2018-09-02T14:17:55.288Z,21.41
2018-09-02T14:20:25.209Z,21.34
2018-09-02T14:22:55.257Z,21.39
2018-09-02T14:25:24.851Z,21.49
2018-09-02T14:27:54.652Z,21.48
2018-09-02T14:30:23.843Z,21.43
2018-09-02T14:32:52.957Z,21.48
2018-09-02T14:35:22.242Z,21.57
2018-09-02T14:40:29.700Z,21.77
2018-09-02T14:43:00.263Z,21.73
2018-09-02T14:45:29.579Z,21.76
2018-09-02T14:47:59.946Z,21.90
2018-09-02T14:50:28.992Z,21.86
2018-09-02T14:52:58.338Z,21.90
2018-09-02T14:55:28.737Z,21.86
2018-09-02T14:57:58.652Z,21.75
2018-09-02T15:00:27.796Z,21.73
2018-09-02T15:02:56.800Z,21.67
2018-09-02T15:05:26.123Z,21.59
2018-09-02T15:07:56.065Z,21.62
2018-09-02T15:10:25.474Z,21.62
2018-09-02T15:12:54.438Z,21.61
2018-09-02T15:15:24.451Z,21.62
2018-09-02T15:17:54.717Z,21.66
2018-09-02T15:20:24.335Z,21.67
2018-09-02T15:22:54.308Z,21.72
2018-09-02T15:25:23.413Z,21.68
2018-09-02T15:27:53.652Z,21.63
2018-09-02T15:30:23.724Z,21.72
2018-09-02T15:32:53.442Z,21.74
2018-09-02T15:35:22.784Z,21.73
2018-09-02T15:37:51.913Z,21.69
2018-09-02T15:40:22.507Z,21.71
2018-09-02T15:42:51.710Z,21.69
2018-09-02T15:45:20.944Z,21.66
2018-09-02T15:47:57.336Z,21.63
2018-09-02T15:50:26.577Z,21.63
2018-09-02T15:52:56.919Z,21.68
2018-09-02T15:55:26.174Z,21.71
2018-09-02T15:57:55.598Z,21.62
2018-09-02T16:00:26.189Z,21.73
2018-09-02T16:02:56.547Z,21.69
2018-09-02T16:05:25.696Z,21.61
2018-09-02T16:07:54.972Z,21.59
2018-09-02T16:10:26.302Z,21.63
2018-09-02T16:12:55.655Z,21.65
2018-09-02T16:15:26.563Z,21.59
2018-09-02T16:17:56.661Z,21.56
2018-09-02T16:20:25.723Z,21.55
2018-09-02T16:22:55.479Z,21.56
2018-09-02T16:25:24.991Z,21.60
2018-09-02T16:27:54.733Z,21.58
2018-09-02T16:30:25.369Z,21.66
2018-09-02T16:32:54.392Z,21.73
2018-09-02T16:35:23.886Z,21.71
2018-09-02T16:37:53.621Z,21.64
2018-09-02T16:40:23.760Z,21.59
2018-09-02T16:42:52.810Z,21.54
2018-09-02T16:45:22.167Z,21.55
2018-09-02T16:47:52.309Z,21.65
2018-09-02T16:50:21.496Z,21.69
2018-09-02T16:52:50.563Z,21.58
2018-09-02T16:55:20.519Z,21.53
2018-09-02T16:57:50.426Z,21.49
2018-09-02T17:00:26.626Z,21.44
2018-09-02T17:02:56.271Z,21.40
2018-09-02T17:05:28.152Z,21.38
2018-09-02T17:07:57.154Z,21.34
2018-09-02T17:10:27.259Z,21.29
2018-09-02T17:12:56.643Z,21.28
2018-09-02T17:15:27.002Z,21.24
2018-09-02T17:17:59.133Z,21.21
2018-09-02T17:20:36.585Z,21.25
2018-09-02T17:23:12.210Z,21.26
2018-09-02T17:25:42.620Z,21.36
2018-09-02T17:28:11.544Z,21.31
2018-09-02T17:30:41.155Z,21.30
2018-09-02T17:33:11.984Z,21.29
2018-09-02T17:35:40.980Z,21.29
2018-09-02T17:38:10.199Z,21.40
2018-09-02T17:40:39.789Z,21.38
2018-09-02T17:43:09.369Z,21.37
2018-09-02T17:45:39.599Z,21.33
2018-09-02T17:48:09.190Z,21.29
2018-09-02T17:50:38.626Z,21.27
2018-09-02T17:53:08.397Z,21.28
2018-09-02T17:55:37.429Z,21.46
2018-09-02T17:58:06.221Z,21.58
2018-09-02T18:00:41.750Z,21.50
2018-09-02T18:03:11.796Z,21.47
2018-09-02T18:05:41.891Z,21.53
2018-09-02T18:08:10.940Z,21.54
2018-09-02T18:10:40.150Z,21.52
2018-09-02T18:13:09.112Z,21.48
2018-09-02T18:15:39.447Z,21.47
2018-09-02T18:18:10.006Z,21.48
2018-09-02T18:20:43.005Z,21.43
2018-09-02T18:23:12.721Z,21.39
2018-09-02T18:25:42.759Z,21.37
2018-09-02T18:28:16.003Z,21.35
2018-09-02T18:30:45.171Z,21.35
2018-09-02T18:33:14.777Z,21.30
2018-09-02T18:35:44.750Z,21.34
2018-09-02T18:38:14.315Z,21.40
2018-09-02T18:40:43.656Z,21.40
2018-09-02T18:43:13.027Z,21.44
2018-09-02T18:45:42.729Z,21.38
2018-09-02T18:48:11.758Z,21.47
2018-09-02T18:50:40.768Z,21.41
2018-09-02T18:53:10.382Z,21.42
2018-09-02T18:55:39.515Z,21.41
2018-09-02T18:58:09.582Z,21.36
2018-09-02T19:00:39.663Z,21.31
2018-09-02T19:03:09.667Z,21.26
2018-09-02T19:05:39.728Z,21.23
2018-09-02T19:08:09.034Z,21.22
2018-09-02T19:10:38.737Z,21.20
2018-09-02T19:15:36.581Z,21.16
2018-09-02T19:18:06.656Z,21.14
2018-09-02T19:20:35.888Z,21.13
2018-09-02T19:23:05.601Z,21.11
2018-09-02T19:25:34.473Z,21.08
2018-09-02T19:28:03.542Z,21.05
2018-09-02T19:30:32.988Z,21.04
2018-09-02T19:33:03.727Z,21.01
2018-09-02T19:35:32.918Z,20.98
2018-09-02T19:38:02.545Z,20.98
2018-09-02T19:40:31.891Z,20.96
2018-09-02T19:43:01.529Z,20.97
2018-09-02T19:45:30.896Z,20.92
2018-09-02T19:48:00.136Z,20.93
2018-09-02T19:50:29.431Z,20.92
2018-09-02T19:52:59.794Z,20.88
2018-09-02T19:55:29.503Z,20.86
2018-09-02T19:57:59.592Z,20.84
2018-09-02T20:00:28.615Z,20.82
2018-09-02T20:02:58.205Z,20.79
2018-09-02T20:05:27.231Z,20.77
2018-09-02T20:07:56.534Z,20.76
2018-09-02T20:10:25.725Z,20.72
2018-09-02T20:12:55.085Z,20.69
2018-09-02T20:15:24.156Z,20.67
2018-09-02T20:17:53.948Z,20.63
2018-09-02T20:20:23.147Z,20.61
2018-09-02T20:22:52.347Z,20.65
2018-09-02T20:25:21.567Z,20.61
2018-09-02T20:27:50.612Z,20.63
2018-09-02T20:30:20.273Z,20.69
2018-09-02T20:32:50.198Z,20.69
2018-09-02T20:35:20.686Z,20.65
2018-09-02T20:37:49.915Z,20.63
2018-09-02T20:40:19.815Z,20.65
2018-09-02T20:42:49.603Z,20.71
2018-09-02T20:45:19.539Z,20.73
2018-09-02T20:47:48.502Z,20.76
2018-09-02T20:50:17.399Z,20.72
2018-09-02T20:52:46.338Z,20.73
2018-09-02T20:55:15.774Z,20.68
2018-09-02T20:57:45.704Z,20.77
2018-09-02T21:00:16.156Z,20.76
2018-09-02T21:02:45.315Z,20.82
2018-09-02T21:05:15.136Z,20.82
2018-09-02T21:07:44.503Z,20.76
2018-09-02T21:10:13.753Z,20.78
2018-09-02T21:12:43.931Z,20.77
2018-09-02T21:15:13.858Z,20.77
2018-09-02T21:17:43.393Z,20.71
2018-09-02T21:20:14.643Z,20.69
2018-09-02T21:22:44.192Z,20.70
2018-09-02T21:25:13.542Z,20.65
2018-09-02T21:27:43.981Z,20.76
2018-09-02T21:30:14.173Z,20.77
2018-09-02T21:32:43.856Z,20.73
2018-09-02T21:35:14.331Z,20.70
2018-09-02T21:37:48.239Z,20.71
2018-09-02T21:43:00.373Z,20.66
2018-09-02T21:45:29.569Z,20.64
2018-09-02T21:47:59.683Z,20.62
2018-09-02T21:50:29.792Z,20.62
2018-09-02T21:53:01.590Z,20.60
2018-09-02T21:55:32.457Z,20.59
2018-09-02T21:58:04.092Z,20.59
2018-09-02T22:00:35.225Z,20.56
2018-09-02T22:03:04.622Z,20.57
2018-09-02T22:05:34.539Z,20.57
2018-09-02T22:08:06.629Z,20.53
2018-09-02T22:10:35.966Z,20.50
2018-09-02T22:13:05.359Z,20.48
2018-09-02T22:15:36.290Z,20.48
2018-09-02T22:18:06.916Z,20.47
2018-09-02T22:20:39.499Z,20.43
2018-09-02T22:23:10.910Z,20.43
2018-09-02T22:25:44.621Z,20.46
2018-09-02T22:28:13.797Z,20.45
2018-09-02T22:30:44.903Z,20.49
2018-09-02T22:33:16.539Z,20.50
2018-09-02T22:35:45.939Z,20.49
2018-09-02T22:38:15.529Z,20.53
2018-09-02T22:40:45.271Z,20.47
2018-09-02T22:43:14.385Z,20.47
2018-09-02T22:45:44.177Z,20.46
2018-09-02T22:48:13.435Z,20.45
2018-09-02T22:50:42.442Z,20.50
2018-09-02T22:53:11.442Z,20.46
2018-09-02T22:55:41.020Z,20.50
2018-09-02T22:58:10.349Z,20.51
2018-09-02T23:00:39.684Z,20.60
2018-09-02T23:03:08.970Z,20.57
2018-09-02T23:05:40.790Z,20.58
2018-09-02T23:08:10.316Z,20.61
2018-09-02T23:10:39.906Z,20.62
2018-09-02T23:13:09.023Z,20.60
2018-09-02T23:15:38.585Z,20.67
2018-09-02T23:18:08.298Z,20.69
2018-09-02T23:20:39.590Z,20.64
2018-09-02T23:23:08.735Z,20.66
2018-09-02T23:25:37.978Z,20.69
2018-09-02T23:28:09.966Z,20.72
2018-09-02T23:30:38.935Z,20.70
2018-09-02T23:33:08.589Z,20.68
2018-09-02T23:35:38.121Z,20.64
2018-09-02T23:38:07.597Z,20.63
2018-09-02T23:40:36.589Z,20.62
2018-09-02T23:43:06.350Z,20.62
2018-09-02T23:45:35.389Z,20.63
2018-09-02T23:48:04.613Z,20.63
2018-09-02T23:50:34.040Z,20.68
2018-09-02T23:53:03.880Z,20.65
2018-09-02T23:55:33.116Z,20.66
2018-09-02T23:58:02.090Z,20.63
